sensor_id;sensor_type;location;lat;lon;timestamp;P1;durP1;ratioP1;P2;durP2;ratioP2
1370;SDS011;14306;49.942;11.570;2024-03-17T00:00:42;4.63;;;2.20;;
1370;SDS011;14306;49.942;11.570;2024-03-17T00:02:15;3.65;;;2.00;;
1370;SDS011;14306;49.942;11.570;2024-03-17T00:03:47;7.57;;;2.20;;
1370;SDS011;14306;49.942;11.570;2024-03-17T00:05:21;3.45;;;2.13;;
1370;SDS011;14306;49.942;11.570;2024-03-17T00:06:54;2.25;;;2.05;;
1370;SDS011;14306;49.942;11.570;2024-03-17T00:08:27;2.38;;;2.00;;
1370;SDS011;14306;49.942;11.570;2024-03-17T00:09:59;4.15;;;2.00;;
1370;SDS011;14306;49.942;11.570;2024-03-17T00:11:32;5.82;;;2.17;;
1370;SDS011;14306;49.942;11.570;2024-03-17T00:13:05;2.90;;;1.85;;
1370;SDS011;14306;49.942;11.570;2024-03-17T00:14:39;8.18;;;2.90;;
1370;SDS011;14306;49.942;11.570;2024-03-17T00:16:11;5.97;;;2.60;;
1370;SDS011;14306;49.942;11.570;2024-03-17T00:17:45;3.28;;;2.17;;
1370;SDS011;14306;49.942;11.570;2024-03-17T00:19:18;5.60;;;2.88;;
1370;SDS011;14306;49.942;11.570;2024-03-17T00:20:55;4.95;;;2.45;;
1370;SDS011;14306;49.942;11.570;2024-03-17T00:22:27;6.47;;;2.90;;
1370;SDS011;14306;49.942;11.570;2024-03-17T00:24:00;2.85;;;2.17;;
1370;SDS011;14306;49.942;11.570;2024-03-17T00:25:34;3.97;;;2.58;;
1370;SDS011;14306;49.942;11.570;2024-03-17T00:27:07;2.35;;;2.10;;
1370;SDS011;14306;49.942;11.570;2024-03-17T00:28:39;4.60;;;2.35;;
1370;SDS011;14306;49.942;11.570;2024-03-17T00:30:13;3.45;;;1.80;;
1370;SDS011;14306;49.942;11.570;2024-03-17T00:31:45;3.47;;;2.22;;
1370;SDS011;14306;49.942;11.570;2024-03-17T00:33:18;2.20;;;2.00;;
1370;SDS011;14306;49.942;11.570;2024-03-17T00:34:51;8.10;;;3.03;;
1370;SDS011;14306;49.942;11.570;2024-03-17T00:36:26;3.13;;;2.15;;
1370;SDS011;14306;49.942;11.570;2024-03-17T00:37:58;2.83;;;1.77;;
1370;SDS011;14306;49.942;11.570;2024-03-17T00:39:35;2.85;;;2.17;;
1370;SDS011;14306;49.942;11.570;2024-03-17T00:41:07;3.08;;;1.90;;
1370;SDS011;14306;49.942;11.570;2024-03-17T00:42:40;2.65;;;1.67;;
1370;SDS011;14306;49.942;11.570;2024-03-17T00:44:13;4.57;;;2.28;;
1370;SDS011;14306;49.942;11.570;2024-03-17T00:45:51;4.05;;;2.30;;
1370;SDS011;14306;49.942;11.570;2024-03-17T00:47:23;7.25;;;2.95;;
1370;SDS011;14306;49.942;11.570;2024-03-17T00:48:56;4.85;;;2.15;;
1370;SDS011;14306;49.942;11.570;2024-03-17T00:50:30;7.95;;;3.45;;
1370;SDS011;14306;49.942;11.570;2024-03-17T00:52:06;5.63;;;2.85;;
1370;SDS011;14306;49.942;11.570;2024-03-17T00:53:38;5.18;;;2.45;;
1370;SDS011;14306;49.942;11.570;2024-03-17T00:55:11;4.18;;;2.78;;
1370;SDS011;14306;49.942;11.570;2024-03-17T00:56:46;6.13;;;3.03;;
1370;SDS011;14306;49.942;11.570;2024-03-17T00:58:18;3.08;;;2.38;;
1370;SDS011;14306;49.942;11.570;2024-03-17T00:59:52;8.10;;;3.15;;
1370;SDS011;14306;49.942;11.570;2024-03-17T01:01:25;3.78;;;2.80;;
1370;SDS011;14306;49.942;11.570;2024-03-17T01:02:57;6.03;;;3.20;;
1370;SDS011;14306;49.942;11.570;2024-03-17T01:04:31;2.80;;;2.20;;
1370;SDS011;14306;49.942;11.570;2024-03-17T01:06:05;4.40;;;2.92;;
1370;SDS011;14306;49.942;11.570;2024-03-17T01:07:39;5.68;;;3.65;;
1370;SDS011;14306;49.942;11.570;2024-03-17T01:09:13;5.75;;;2.90;;
1370;SDS011;14306;49.942;11.570;2024-03-17T01:10:46;5.80;;;2.55;;
1370;SDS011;14306;49.942;11.570;2024-03-17T01:12:21;4.65;;;3.05;;
1370;SDS011;14306;49.942;11.570;2024-03-17T01:13:54;5.50;;;2.50;;
1370;SDS011;14306;49.942;11.570;2024-03-17T01:15:27;5.30;;;2.88;;
1370;SDS011;14306;49.942;11.570;2024-03-17T01:17:00;9.95;;;3.60;;
1370;SDS011;14306;49.942;11.570;2024-03-17T01:18:36;4.65;;;3.13;;
1370;SDS011;14306;49.942;11.570;2024-03-17T01:20:09;4.15;;;2.65;;
1370;SDS011;14306;49.942;11.570;2024-03-17T01:21:41;5.82;;;3.83;;
1370;SDS011;14306;49.942;11.570;2024-03-17T01:23:16;11.27;;;4.05;;
1370;SDS011;14306;49.942;11.570;2024-03-17T01:24:48;4.78;;;3.10;;
1370;SDS011;14306;49.942;11.570;2024-03-17T01:26:22;4.63;;;3.20;;
1370;SDS011;14306;49.942;11.570;2024-03-17T01:27:56;5.80;;;3.65;;
1370;SDS011;14306;49.942;11.570;2024-03-17T01:29:30;5.75;;;3.35;;
1370;SDS011;14306;49.942;11.570;2024-03-17T01:31:05;6.75;;;3.60;;
1370;SDS011;14306;49.942;11.570;2024-03-17T01:32:38;4.55;;;3.33;;
1370;SDS011;14306;49.942;11.570;2024-03-17T01:34:11;7.60;;;4.28;;
1370;SDS011;14306;49.942;11.570;2024-03-17T01:35:44;4.55;;;2.55;;
1370;SDS011;14306;49.942;11.570;2024-03-17T01:37:16;5.78;;;2.67;;
1370;SDS011;14306;49.942;11.570;2024-03-17T01:38:51;4.93;;;2.42;;
1370;SDS011;14306;49.942;11.570;2024-03-17T01:40:24;3.38;;;2.58;;
1370;SDS011;14306;49.942;11.570;2024-03-17T01:41:57;9.32;;;3.20;;
1370;SDS011;14306;49.942;11.570;2024-03-17T01:43:31;8.32;;;2.28;;
1370;SDS011;14306;49.942;11.570;2024-03-17T01:45:13;5.95;;;2.30;;
1370;SDS011;14306;49.942;11.570;2024-03-17T01:46:56;6.13;;;3.20;;
1370;SDS011;14306;49.942;11.570;2024-03-17T01:48:32;6.10;;;2.95;;
1370;SDS011;14306;49.942;11.570;2024-03-17T01:50:06;5.60;;;3.58;;
1370;SDS011;14306;49.942;11.570;2024-03-17T01:51:40;4.10;;;2.90;;
1370;SDS011;14306;49.942;11.570;2024-03-17T01:53:13;8.80;;;3.25;;
1370;SDS011;14306;49.942;11.570;2024-03-17T01:54:48;4.78;;;2.40;;
1370;SDS011;14306;49.942;11.570;2024-03-17T01:56:21;4.60;;;2.72;;
1370;SDS011;14306;49.942;11.570;2024-03-17T01:57:54;2.83;;;2.53;;
1370;SDS011;14306;49.942;11.570;2024-03-17T01:59:27;6.60;;;2.50;;
1370;SDS011;14306;49.942;11.570;2024-03-17T02:01:01;5.03;;;3.00;;
1370;SDS011;14306;49.942;11.570;2024-03-17T02:02:33;3.22;;;2.90;;
1370;SDS011;14306;49.942;11.570;2024-03-17T02:04:05;6.22;;;3.53;;
1370;SDS011;14306;49.942;11.570;2024-03-17T02:05:39;4.70;;;3.38;;
1370;SDS011;14306;49.942;11.570;2024-03-17T02:07:11;6.57;;;3.35;;
1370;SDS011;14306;49.942;11.570;2024-03-17T02:08:47;7.78;;;4.32;;
1370;SDS011;14306;49.942;11.570;2024-03-17T02:10:21;6.43;;;3.40;;
1370;SDS011;14306;49.942;11.570;2024-03-17T02:11:55;5.57;;;3.60;;
1370;SDS011;14306;49.942;11.570;2024-03-17T02:13:27;4.68;;;4.07;;
1370;SDS011;14306;49.942;11.570;2024-03-17T02:15:00;6.80;;;2.97;;
1370;SDS011;14306;49.942;11.570;2024-03-17T02:16:37;2.70;;;2.40;;
1370;SDS011;14306;49.942;11.570;2024-03-17T02:18:10;5.53;;;2.17;;
1370;SDS011;14306;49.942;11.570;2024-03-17T02:19:42;4.13;;;2.17;;
1370;SDS011;14306;49.942;11.570;2024-03-17T02:21:15;7.75;;;2.40;;
1370;SDS011;14306;49.942;11.570;2024-03-17T02:22:50;1.88;;;1.70;;
1370;SDS011;14306;49.942;11.570;2024-03-17T02:24:22;2.88;;;2.28;;
1370;SDS011;14306;49.942;11.570;2024-03-17T02:25:56;2.95;;;2.20;;
1370;SDS011;14306;49.942;11.570;2024-03-17T02:27:28;4.50;;;2.05;;
1370;SDS011;14306;49.942;11.570;2024-03-17T02:29:02;5.47;;;2.85;;
1370;SDS011;14306;49.942;11.570;2024-03-17T02:30:34;2.13;;;1.92;;
1370;SDS011;14306;49.942;11.570;2024-03-17T02:32:07;6.43;;;1.98;;
1370;SDS011;14306;49.942;11.570;2024-03-17T02:33:41;2.55;;;2.13;;
1370;SDS011;14306;49.942;11.570;2024-03-17T02:35:15;2.47;;;1.75;;
1370;SDS011;14306;49.942;11.570;2024-03-17T02:36:49;3.28;;;2.40;;
1370;SDS011;14306;49.942;11.570;2024-03-17T02:38:22;3.15;;;2.00;;
1370;SDS011;14306;49.942;11.570;2024-03-17T02:40:10;5.30;;;2.28;;
1370;SDS011;14306;49.942;11.570;2024-03-17T02:41:43;3.42;;;2.58;;
1370;SDS011;14306;49.942;11.570;2024-03-17T02:43:17;3.42;;;2.50;;
1370;SDS011;14306;49.942;11.570;2024-03-17T02:44:50;2.95;;;1.73;;
1370;SDS011;14306;49.942;11.570;2024-03-17T02:46:23;4.10;;;2.00;;
1370;SDS011;14306;49.942;11.570;2024-03-17T02:47:57;3.22;;;2.10;;
1370;SDS011;14306;49.942;11.570;2024-03-17T02:49:30;2.97;;;1.55;;
1370;SDS011;14306;49.942;11.570;2024-03-17T02:51:08;2.03;;;1.83;;
1370;SDS011;14306;49.942;11.570;2024-03-17T02:52:41;3.95;;;1.95;;
1370;SDS011;14306;49.942;11.570;2024-03-17T02:54:16;4.60;;;1.70;;
1370;SDS011;14306;49.942;11.570;2024-03-17T02:55:48;3.83;;;2.00;;
1370;SDS011;14306;49.942;11.570;2024-03-17T02:57:22;7.50;;;2.35;;
1370;SDS011;14306;49.942;11.570;2024-03-17T02:58:56;3.08;;;1.67;;
1370;SDS011;14306;49.942;11.570;2024-03-17T03:00:29;3.85;;;1.75;;
1370;SDS011;14306;49.942;11.570;2024-03-17T03:02:02;2.58;;;1.98;;
1370;SDS011;14306;49.942;11.570;2024-03-17T03:03:36;4.82;;;1.90;;
1370;SDS011;14306;49.942;11.570;2024-03-17T03:05:08;2.00;;;1.80;;
1370;SDS011;14306;49.942;11.570;2024-03-17T03:06:42;3.15;;;1.55;;
1370;SDS011;14306;49.942;11.570;2024-03-17T03:08:15;3.55;;;1.90;;
1370;SDS011;14306;49.942;11.570;2024-03-17T03:09:49;3.38;;;1.73;;
1370;SDS011;14306;49.942;11.570;2024-03-17T03:11:23;3.85;;;1.77;;
1370;SDS011;14306;49.942;11.570;2024-03-17T03:12:56;6.18;;;2.72;;
1370;SDS011;14306;49.942;11.570;2024-03-17T03:14:29;2.75;;;2.00;;
1370;SDS011;14306;49.942;11.570;2024-03-17T03:16:03;4.00;;;1.60;;
1370;SDS011;14306;49.942;11.570;2024-03-17T03:17:37;3.40;;;1.90;;
1370;SDS011;14306;49.942;11.570;2024-03-17T03:19:11;2.17;;;1.65;;
1370;SDS011;14306;49.942;11.570;2024-03-17T03:20:49;2.67;;;1.80;;
1370;SDS011;14306;49.942;11.570;2024-03-17T03:22:23;4.05;;;1.90;;
1370;SDS011;14306;49.942;11.570;2024-03-17T03:23:56;8.02;;;2.03;;
1370;SDS011;14306;49.942;11.570;2024-03-17T03:25:30;3.75;;;1.83;;
1370;SDS011;14306;49.942;11.570;2024-03-17T03:27:04;4.05;;;1.80;;
1370;SDS011;14306;49.942;11.570;2024-03-17T03:28:36;2.45;;;1.60;;
1370;SDS011;14306;49.942;11.570;2024-03-17T03:30:10;2.65;;;2.35;;
1370;SDS011;14306;49.942;11.570;2024-03-17T03:31:43;3.67;;;2.08;;
1370;SDS011;14306;49.942;11.570;2024-03-17T03:33:16;4.28;;;1.60;;
1370;SDS011;14306;49.942;11.570;2024-03-17T03:34:49;2.10;;;1.90;;
1370;SDS011;14306;49.942;11.570;2024-03-17T03:36:23;7.75;;;2.75;;
1370;SDS011;14306;49.942;11.570;2024-03-17T03:37:55;1.88;;;1.65;;
1370;SDS011;14306;49.942;11.570;2024-03-17T03:39:28;5.88;;;1.88;;
1370;SDS011;14306;49.942;11.570;2024-03-17T03:41:08;6.60;;;2.22;;
1370;SDS011;14306;49.942;11.570;2024-03-17T03:42:42;5.55;;;1.95;;
1370;SDS011;14306;49.942;11.570;2024-03-17T03:44:14;4.03;;;2.08;;
1370;SDS011;14306;49.942;11.570;2024-03-17T03:45:48;4.45;;;2.17;;
1370;SDS011;14306;49.942;11.570;2024-03-17T03:47:20;2.70;;;1.70;;
1370;SDS011;14306;49.942;11.570;2024-03-17T03:48:54;2.90;;;1.75;;
1370;SDS011;14306;49.942;11.570;2024-03-17T03:50:27;2.50;;;1.60;;
1370;SDS011;14306;49.942;11.570;2024-03-17T03:52:00;3.10;;;2.22;;
1370;SDS011;14306;49.942;11.570;2024-03-17T03:53:33;8.02;;;2.38;;
1370;SDS011;14306;49.942;11.570;2024-03-17T03:55:06;6.68;;;1.75;;
1370;SDS011;14306;49.942;11.570;2024-03-17T03:56:43;6.07;;;1.70;;
1370;SDS011;14306;49.942;11.570;2024-03-17T03:58:15;3.90;;;1.98;;
1370;SDS011;14306;49.942;11.570;2024-03-17T03:59:49;3.50;;;1.88;;
1370;SDS011;14306;49.942;11.570;2024-03-17T04:01:21;1.90;;;1.75;;
1370;SDS011;14306;49.942;11.570;2024-03-17T04:02:54;3.20;;;2.20;;
1370;SDS011;14306;49.942;11.570;2024-03-17T04:04:26;3.25;;;2.00;;
1370;SDS011;14306;49.942;11.570;2024-03-17T04:06:01;4.50;;;1.80;;
1370;SDS011;14306;49.942;11.570;2024-03-17T04:07:35;2.20;;;1.73;;
1370;SDS011;14306;49.942;11.570;2024-03-17T04:09:09;1.73;;;1.48;;
1370;SDS011;14306;49.942;11.570;2024-03-17T04:10:43;3.05;;;1.70;;
1370;SDS011;14306;49.942;11.570;2024-03-17T04:12:18;9.18;;;1.80;;
1370;SDS011;14306;49.942;11.570;2024-03-17T04:13:50;5.68;;;2.00;;
1370;SDS011;14306;49.942;11.570;2024-03-17T04:15:23;3.35;;;1.95;;
1370;SDS011;14306;49.942;11.570;2024-03-17T04:16:55;3.25;;;2.08;;
1370;SDS011;14306;49.942;11.570;2024-03-17T04:18:30;2.50;;;2.03;;
1370;SDS011;14306;49.942;11.570;2024-03-17T04:20:02;3.72;;;1.95;;
1370;SDS011;14306;49.942;11.570;2024-03-17T04:21:36;3.70;;;1.80;;
1370;SDS011;14306;49.942;11.570;2024-03-17T04:23:08;7.60;;;2.40;;
1370;SDS011;14306;49.942;11.570;2024-03-17T04:24:42;6.00;;;2.28;;
1370;SDS011;14306;49.942;11.570;2024-03-17T04:26:14;1.90;;;1.70;;
1370;SDS011;14306;49.942;11.570;2024-03-17T04:27:49;2.80;;;2.20;;
1370;SDS011;14306;49.942;11.570;2024-03-17T04:29:22;2.15;;;1.95;;
1370;SDS011;14306;49.942;11.570;2024-03-17T04:31:02;2.15;;;1.95;;
1370;SDS011;14306;49.942;11.570;2024-03-17T04:32:36;2.30;;;2.05;;
1370;SDS011;14306;49.942;11.570;2024-03-17T04:34:08;4.90;;;2.13;;
1370;SDS011;14306;49.942;11.570;2024-03-17T04:35:41;2.83;;;1.80;;
1370;SDS011;14306;49.942;11.570;2024-03-17T04:37:14;2.95;;;1.70;;
1370;SDS011;14306;49.942;11.570;2024-03-17T04:38:48;5.78;;;1.98;;
1370;SDS011;14306;49.942;11.570;2024-03-17T04:40:22;5.20;;;2.47;;
1370;SDS011;14306;49.942;11.570;2024-03-17T04:41:54;4.88;;;1.90;;
1370;SDS011;14306;49.942;11.570;2024-03-17T04:43:29;2.88;;;2.33;;
1370;SDS011;14306;49.942;11.570;2024-03-17T04:45:03;4.32;;;2.22;;
1370;SDS011;14306;49.942;11.570;2024-03-17T04:46:37;3.33;;;2.15;;
1370;SDS011;14306;49.942;11.570;2024-03-17T04:48:09;4.28;;;2.40;;
1370;SDS011;14306;49.942;11.570;2024-03-17T04:49:43;3.58;;;1.80;;
1370;SDS011;14306;49.942;11.570;2024-03-17T04:51:16;3.47;;;1.90;;
1370;SDS011;14306;49.942;11.570;2024-03-17T04:52:49;3.80;;;2.70;;
1370;SDS011;14306;49.942;11.570;2024-03-17T04:54:22;5.47;;;1.88;;
1370;SDS011;14306;49.942;11.570;2024-03-17T04:56:01;5.00;;;2.72;;
1370;SDS011;14306;49.942;11.570;2024-03-17T04:57:36;4.15;;;2.30;;
1370;SDS011;14306;49.942;11.570;2024-03-17T04:59:10;9.73;;;2.53;;
1370;SDS011;14306;49.942;11.570;2024-03-17T05:00:42;3.10;;;2.65;;
1370;SDS011;14306;49.942;11.570;2024-03-17T05:02:16;6.55;;;2.50;;
1370;SDS011;14306;49.942;11.570;2024-03-17T05:03:50;3.97;;;2.60;;
1370;SDS011;14306;49.942;11.570;2024-03-17T05:05:23;6.47;;;2.58;;
1370;SDS011;14306;49.942;11.570;2024-03-17T05:06:56;3.55;;;2.10;;
1370;SDS011;14306;49.942;11.570;2024-03-17T05:08:30;3.47;;;2.28;;
1370;SDS011;14306;49.942;11.570;2024-03-17T05:10:03;3.47;;;1.90;;
1370;SDS011;14306;49.942;11.570;2024-03-17T05:11:37;8.48;;;2.28;;
1370;SDS011;14306;49.942;11.570;2024-03-17T05:13:10;7.47;;;2.45;;
1370;SDS011;14306;49.942;11.570;2024-03-17T05:14:46;4.30;;;2.30;;
1370;SDS011;14306;49.942;11.570;2024-03-17T05:16:19;6.97;;;2.10;;
1370;SDS011;14306;49.942;11.570;2024-03-17T05:17:53;3.88;;;2.30;;
1370;SDS011;14306;49.942;11.570;2024-03-17T05:19:26;3.15;;;2.45;;
1370;SDS011;14306;49.942;11.570;2024-03-17T05:20:59;2.78;;;2.30;;
1370;SDS011;14306;49.942;11.570;2024-03-17T05:22:32;8.38;;;2.88;;
1370;SDS011;14306;49.942;11.570;2024-03-17T05:24:05;2.30;;;2.10;;
1370;SDS011;14306;49.942;11.570;2024-03-17T05:25:38;2.85;;;2.50;;
1370;SDS011;14306;49.942;11.570;2024-03-17T05:27:11;4.57;;;2.80;;
1370;SDS011;14306;49.942;11.570;2024-03-17T05:28:44;10.95;;;3.10;;
1370;SDS011;14306;49.942;11.570;2024-03-17T05:30:18;4.40;;;2.92;;
1370;SDS011;14306;49.942;11.570;2024-03-17T05:31:51;3.88;;;3.00;;
1370;SDS011;14306;49.942;11.570;2024-03-17T05:33:24;4.82;;;3.10;;
1370;SDS011;14306;49.942;11.570;2024-03-17T05:34:58;6.57;;;2.80;;
1370;SDS011;14306;49.942;11.570;2024-03-17T05:36:31;8.50;;;3.55;;
1370;SDS011;14306;49.942;11.570;2024-03-17T05:38:05;4.35;;;2.63;;
1370;SDS011;14306;49.942;11.570;2024-03-17T05:39:42;3.97;;;2.35;;
1370;SDS011;14306;49.942;11.570;2024-03-17T05:41:15;5.38;;;2.60;;
1370;SDS011;14306;49.942;11.570;2024-03-17T05:42:47;6.18;;;3.05;;
1370;SDS011;14306;49.942;11.570;2024-03-17T05:44:21;3.65;;;2.88;;
1370;SDS011;14306;49.942;11.570;2024-03-17T05:45:56;3.95;;;2.75;;
1370;SDS011;14306;49.942;11.570;2024-03-17T05:47:30;5.20;;;2.80;;
1370;SDS011;14306;49.942;11.570;2024-03-17T05:49:02;8.45;;;2.60;;
1370;SDS011;14306;49.942;11.570;2024-03-17T05:50:36;3.17;;;2.72;;
1370;SDS011;14306;49.942;11.570;2024-03-17T05:52:08;3.70;;;2.63;;
1370;SDS011;14306;49.942;11.570;2024-03-17T05:53:41;2.88;;;2.50;;
1370;SDS011;14306;49.942;11.570;2024-03-17T05:55:15;4.45;;;2.33;;
1370;SDS011;14306;49.942;11.570;2024-03-17T05:56:48;4.63;;;2.20;;
1370;SDS011;14306;49.942;11.570;2024-03-17T05:58:22;5.38;;;2.30;;
1370;SDS011;14306;49.942;11.570;2024-03-17T05:59:54;5.97;;;2.95;;
1370;SDS011;14306;49.942;11.570;2024-03-17T06:01:29;3.60;;;2.50;;
1370;SDS011;14306;49.942;11.570;2024-03-17T06:03:01;4.65;;;2.45;;
1370;SDS011;14306;49.942;11.570;2024-03-17T06:04:38;2.47;;;2.00;;
1370;SDS011;14306;49.942;11.570;2024-03-17T06:06:10;4.40;;;2.95;;
1370;SDS011;14306;49.942;11.570;2024-03-17T06:07:46;3.67;;;2.25;;
1370;SDS011;14306;49.942;11.570;2024-03-17T06:09:18;4.63;;;1.95;;
1370;SDS011;14306;49.942;11.570;2024-03-17T06:10:52;3.08;;;1.73;;
1370;SDS011;14306;49.942;11.570;2024-03-17T06:12:24;2.33;;;2.08;;
1370;SDS011;14306;49.942;11.570;2024-03-17T06:13:57;2.90;;;2.10;;
1370;SDS011;14306;49.942;11.570;2024-03-17T06:15:33;3.33;;;2.03;;
1370;SDS011;14306;49.942;11.570;2024-03-17T06:17:08;3.28;;;2.20;;
1370;SDS011;14306;49.942;11.570;2024-03-17T06:18:42;2.95;;;1.90;;
1370;SDS011;14306;49.942;11.570;2024-03-17T06:20:14;5.40;;;3.15;;
1370;SDS011;14306;49.942;11.570;2024-03-17T06:21:47;4.78;;;2.92;;
1370;SDS011;14306;49.942;11.570;2024-03-17T06:23:23;7.43;;;2.38;;
1370;SDS011;14306;49.942;11.570;2024-03-17T06:24:55;3.80;;;2.20;;
1370;SDS011;14306;49.942;11.570;2024-03-17T06:26:28;2.45;;;2.25;;
1370;SDS011;14306;49.942;11.570;2024-03-17T06:28:03;6.68;;;2.50;;
1370;SDS011;14306;49.942;11.570;2024-03-17T06:29:36;8.27;;;2.78;;
1370;SDS011;14306;49.942;11.570;2024-03-17T06:31:09;2.47;;;2.25;;
1370;SDS011;14306;49.942;11.570;2024-03-17T06:32:43;3.92;;;2.30;;
1370;SDS011;14306;49.942;11.570;2024-03-17T06:34:17;5.30;;;2.70;;
1370;SDS011;14306;49.942;11.570;2024-03-17T06:35:50;5.80;;;2.28;;
1370;SDS011;14306;49.942;11.570;2024-03-17T06:37:23;2.25;;;2.00;;
1370;SDS011;14306;49.942;11.570;2024-03-17T06:38:55;2.42;;;1.77;;
1370;SDS011;14306;49.942;11.570;2024-03-17T06:40:29;5.90;;;2.15;;
1370;SDS011;14306;49.942;11.570;2024-03-17T06:42:02;3.33;;;1.88;;
1370;SDS011;14306;49.942;11.570;2024-03-17T06:43:36;2.10;;;1.83;;
1370;SDS011;14306;49.942;11.570;2024-03-17T06:45:08;7.05;;;2.08;;
1370;SDS011;14306;49.942;11.570;2024-03-17T06:46:42;2.38;;;2.00;;
1370;SDS011;14306;49.942;11.570;2024-03-17T06:48:17;8.05;;;2.63;;
1370;SDS011;14306;49.942;11.570;2024-03-17T06:49:50;4.60;;;2.10;;
1370;SDS011;14306;49.942;11.570;2024-03-17T06:51:22;3.47;;;2.45;;
1370;SDS011;14306;49.942;11.570;2024-03-17T06:52:55;1.80;;;1.70;;
1370;SDS011;14306;49.942;11.570;2024-03-17T06:54:28;3.90;;;1.90;;
1370;SDS011;14306;49.942;11.570;2024-03-17T06:56:03;4.45;;;2.40;;
1370;SDS011;14306;49.942;11.570;2024-03-17T06:57:37;2.33;;;1.85;;
1370;SDS011;14306;49.942;11.570;2024-03-17T06:59:15;4.43;;;1.88;;
1370;SDS011;14306;49.942;11.570;2024-03-17T07:00:51;3.72;;;1.83;;
1370;SDS011;14306;49.942;11.570;2024-03-17T07:02:25;5.47;;;1.95;;
1370;SDS011;14306;49.942;11.570;2024-03-17T07:04:00;2.53;;;1.95;;
1370;SDS011;14306;49.942;11.570;2024-03-17T07:05:33;3.22;;;1.65;;
1370;SDS011;14306;49.942;11.570;2024-03-17T07:07:05;4.00;;;2.60;;
1370;SDS011;14306;49.942;11.570;2024-03-17T07:08:38;4.28;;;2.50;;
1370;SDS011;14306;49.942;11.570;2024-03-17T07:10:13;3.58;;;2.28;;
1370;SDS011;14306;49.942;11.570;2024-03-17T07:11:46;4.88;;;2.53;;
1370;SDS011;14306;49.942;11.570;2024-03-17T07:13:21;3.55;;;2.00;;
1370;SDS011;14306;49.942;11.570;2024-03-17T07:14:53;3.47;;;1.92;;
1370;SDS011;14306;49.942;11.570;2024-03-17T07:16:26;5.43;;;2.10;;
1370;SDS011;14306;49.942;11.570;2024-03-17T07:18:00;2.58;;;2.35;;
1370;SDS011;14306;49.942;11.570;2024-03-17T07:19:34;4.07;;;1.92;;
1370;SDS011;14306;49.942;11.570;2024-03-17T07:21:07;3.35;;;2.30;;
1370;SDS011;14306;49.942;11.570;2024-03-17T07:22:41;6.20;;;2.25;;
1370;SDS011;14306;49.942;11.570;2024-03-17T07:24:14;3.08;;;2.10;;
1370;SDS011;14306;49.942;11.570;2024-03-17T07:25:53;4.13;;;1.80;;
1370;SDS011;14306;49.942;11.570;2024-03-17T07:27:27;3.42;;;2.13;;
1370;SDS011;14306;49.942;11.570;2024-03-17T07:28:59;3.42;;;2.10;;
1370;SDS011;14306;49.942;11.570;2024-03-17T07:30:32;4.75;;;2.05;;
1370;SDS011;14306;49.942;11.570;2024-03-17T07:32:05;7.57;;;2.70;;
1370;SDS011;14306;49.942;11.570;2024-03-17T07:33:38;4.13;;;1.80;;
1370;SDS011;14306;49.942;11.570;2024-03-17T07:35:12;3.88;;;2.20;;
1370;SDS011;14306;49.942;11.570;2024-03-17T07:36:45;5.22;;;2.25;;
1370;SDS011;14306;49.942;11.570;2024-03-17T07:38:18;2.85;;;2.05;;
1370;SDS011;14306;49.942;11.570;2024-03-17T07:39:51;2.15;;;1.63;;
1370;SDS011;14306;49.942;11.570;2024-03-17T07:41:24;3.38;;;2.47;;
1370;SDS011;14306;49.942;11.570;2024-03-17T07:42:58;6.93;;;2.10;;
1370;SDS011;14306;49.942;11.570;2024-03-17T07:44:30;2.17;;;1.83;;
1370;SDS011;14306;49.942;11.570;2024-03-17T07:46:05;2.13;;;1.90;;
1370;SDS011;14306;49.942;11.570;2024-03-17T07:47:39;3.33;;;2.00;;
1370;SDS011;14306;49.942;11.570;2024-03-17T07:49:12;2.80;;;1.73;;
1370;SDS011;14306;49.942;11.570;2024-03-17T07:50:54;7.20;;;1.90;;
1370;SDS011;14306;49.942;11.570;2024-03-17T07:52:26;5.85;;;2.33;;
1370;SDS011;14306;49.942;11.570;2024-03-17T07:54:00;1.60;;;1.50;;
1370;SDS011;14306;49.942;11.570;2024-03-17T07:55:32;1.75;;;1.65;;
1370;SDS011;14306;49.942;11.570;2024-03-17T07:57:06;3.40;;;1.90;;
1370;SDS011;14306;49.942;11.570;2024-03-17T07:58:41;2.60;;;1.90;;
1370;SDS011;14306;49.942;11.570;2024-03-17T08:00:15;3.60;;;2.30;;
1370;SDS011;14306;49.942;11.570;2024-03-17T08:01:47;3.22;;;2.30;;
1370;SDS011;14306;49.942;11.570;2024-03-17T08:03:22;6.55;;;2.30;;
1370;SDS011;14306;49.942;11.570;2024-03-17T08:04:54;3.03;;;2.10;;
1370;SDS011;14306;49.942;11.570;2024-03-17T08:06:29;6.30;;;1.88;;
1370;SDS011;14306;49.942;11.570;2024-03-17T08:08:01;3.53;;;2.55;;
1370;SDS011;14306;49.942;11.570;2024-03-17T08:09:35;5.10;;;1.90;;
1370;SDS011;14306;49.942;11.570;2024-03-17T08:11:08;2.63;;;2.05;;
1370;SDS011;14306;49.942;11.570;2024-03-17T08:12:40;3.90;;;2.00;;
1370;SDS011;14306;49.942;11.570;2024-03-17T08:14:14;3.55;;;1.77;;
1370;SDS011;14306;49.942;11.570;2024-03-17T08:15:55;3.83;;;1.75;;
1370;SDS011;14306;49.942;11.570;2024-03-17T08:17:29;7.32;;;1.90;;
1370;SDS011;14306;49.942;11.570;2024-03-17T08:19:02;2.35;;;2.15;;
1370;SDS011;14306;49.942;11.570;2024-03-17T08:20:36;5.35;;;2.58;;
1370;SDS011;14306;49.942;11.570;2024-03-17T08:22:11;4.78;;;2.30;;
1370;SDS011;14306;49.942;11.570;2024-03-17T08:23:44;2.78;;;2.05;;
1370;SDS011;14306;49.942;11.570;2024-03-17T08:25:18;4.22;;;1.70;;
1370;SDS011;14306;49.942;11.570;2024-03-17T08:26:51;4.07;;;2.30;;
1370;SDS011;14306;49.942;11.570;2024-03-17T08:28:25;3.63;;;1.95;;
1370;SDS011;14306;49.942;11.570;2024-03-17T08:29:59;3.17;;;1.55;;
1370;SDS011;14306;49.942;11.570;2024-03-17T08:31:32;2.30;;;2.00;;
1370;SDS011;14306;49.942;11.570;2024-03-17T08:33:05;4.97;;;2.67;;
1370;SDS011;14306;49.942;11.570;2024-03-17T08:34:42;3.30;;;2.05;;
1370;SDS011;14306;49.942;11.570;2024-03-17T08:36:19;7.05;;;1.60;;
1370;SDS011;14306;49.942;11.570;2024-03-17T08:37:53;3.00;;;2.05;;
1370;SDS011;14306;49.942;11.570;2024-03-17T08:39:27;1.90;;;1.70;;
1370;SDS011;14306;49.942;11.570;2024-03-17T08:41:02;2.67;;;1.75;;
1370;SDS011;14306;49.942;11.570;2024-03-17T08:42:36;4.40;;;1.63;;
1370;SDS011;14306;49.942;11.570;2024-03-17T08:44:10;2.63;;;1.43;;
1370;SDS011;14306;49.942;11.570;2024-03-17T08:45:42;2.70;;;1.43;;
1370;SDS011;14306;49.942;11.570;2024-03-17T08:47:16;3.23;;;1.60;;
1370;SDS011;14306;49.942;11.570;2024-03-17T08:48:48;3.63;;;1.93;;
1370;SDS011;14306;49.942;11.570;2024-03-17T08:50:22;3.80;;;1.50;;
1370;SDS011;14306;49.942;11.570;2024-03-17T08:51:54;3.80;;;1.63;;
1370;SDS011;14306;49.942;11.570;2024-03-17T08:53:30;4.40;;;1.73;;
1370;SDS011;14306;49.942;11.570;2024-03-17T08:55:04;5.70;;;1.60;;
1370;SDS011;14306;49.942;11.570;2024-03-17T08:56:41;4.50;;;1.90;;
1370;SDS011;14306;49.942;11.570;2024-03-17T08:58:16;3.57;;;1.87;;
1370;SDS011;14306;49.942;11.570;2024-03-17T08:59:50;4.63;;;1.90;;
1370;SDS011;14306;49.942;11.570;2024-03-17T09:01:25;2.20;;;1.80;;
1370;SDS011;14306;49.942;11.570;2024-03-17T09:03:01;5.30;;;2.07;;
1370;SDS011;14306;49.942;11.570;2024-03-17T09:04:33;3.37;;;1.63;;
1370;SDS011;14306;49.942;11.570;2024-03-17T09:06:13;3.87;;;1.90;;
1370;SDS011;14306;49.942;11.570;2024-03-17T09:07:47;3.70;;;1.57;;
1370;SDS011;14306;49.942;11.570;2024-03-17T09:09:22;1.93;;;1.73;;
1370;SDS011;14306;49.942;11.570;2024-03-17T09:10:55;2.67;;;1.70;;
1370;SDS011;14306;49.942;11.570;2024-03-17T09:12:28;3.90;;;2.70;;
1370;SDS011;14306;49.942;11.570;2024-03-17T09:14:02;3.57;;;2.20;;
1370;SDS011;14306;49.942;11.570;2024-03-17T09:15:34;3.13;;;2.17;;
1370;SDS011;14306;49.942;11.570;2024-03-17T09:17:07;5.57;;;2.17;;
1370;SDS011;14306;49.942;11.570;2024-03-17T09:18:40;1.73;;;1.63;;
1370;SDS011;14306;49.942;11.570;2024-03-17T09:20:13;5.10;;;3.60;;
1370;SDS011;14306;49.942;11.570;2024-03-17T09:21:46;3.80;;;2.47;;
1370;SDS011;14306;49.942;11.570;2024-03-17T09:23:19;3.07;;;2.50;;
1370;SDS011;14306;49.942;11.570;2024-03-17T09:24:54;2.73;;;1.90;;